sensor_id;sensor_type;location;lat;lon;timestamp;P1;durP1;ratioP1;P2;durP2;ratioP2
49710;SDS011;35602;44.534;18.696;2022-07-10T00:04:59;3.12;;;2.78;;
49710;SDS011;35602;44.534;18.696;2022-07-10T00:10:00;4.15;;;2.92;;
49710;SDS011;35602;44.534;18.696;2022-07-10T00:15:02;4.53;;;3.00;;
49710;SDS011;35602;44.534;18.696;2022-07-10T00:20:05;5.10;;;2.72;;
49710;SDS011;35602;44.534;18.696;2022-07-10T00:25:07;2.90;;;2.70;;
49710;SDS011;35602;44.534;18.696;2022-07-10T00:30:11;3.30;;;2.90;;
49710;SDS011;35602;44.534;18.696;2022-07-10T00:35:12;5.05;;;2.90;;
49710;SDS011;35602;44.534;18.696;2022-07-10T00:40:13;3.10;;;2.67;;
49710;SDS011;35602;44.534;18.696;2022-07-10T00:45:13;2.83;;;2.62;;
49710;SDS011;35602;44.534;18.696;2022-07-10T00:50:14;3.75;;;2.40;;
49710;SDS011;35602;44.534;18.696;2022-07-10T00:55:15;2.80;;;2.60;;
49710;SDS011;35602;44.534;18.696;2022-07-10T01:00:16;2.95;;;2.67;;
49710;SDS011;35602;44.534;18.696;2022-07-10T01:05:19;3.28;;;2.72;;
49710;SDS011;35602;44.534;18.696;2022-07-10T01:10:20;3.33;;;2.70;;
49710;SDS011;35602;44.534;18.696;2022-07-10T01:15:21;4.90;;;2.45;;
49710;SDS011;35602;44.534;18.696;2022-07-10T01:20:29;3.17;;;2.37;;
49710;SDS011;35602;44.534;18.696;2022-07-10T01:25:32;2.95;;;2.50;;
49710;SDS011;35602;44.534;18.696;2022-07-10T01:30:33;4.32;;;2.50;;
49710;SDS011;35602;44.534;18.696;2022-07-10T01:35:34;2.70;;;2.50;;
49710;SDS011;35602;44.534;18.696;2022-07-10T01:40:34;2.65;;;2.45;;
49710;SDS011;35602;44.534;18.696;2022-07-10T01:45:35;2.65;;;2.20;;
49710;SDS011;35602;44.534;18.696;2022-07-10T01:50:36;2.58;;;2.37;;
49710;SDS011;35602;44.534;18.696;2022-07-10T01:55:37;3.85;;;2.60;;
49710;SDS011;35602;44.534;18.696;2022-07-10T02:00:38;2.58;;;2.35;;
49710;SDS011;35602;44.534;18.696;2022-07-10T02:05:39;2.40;;;2.20;;
49710;SDS011;35602;44.534;18.696;2022-07-10T02:10:39;2.85;;;2.62;;
49710;SDS011;35602;44.534;18.696;2022-07-10T02:15:40;2.60;;;2.37;;
49710;SDS011;35602;44.534;18.696;2022-07-10T02:20:41;2.45;;;2.25;;
49710;SDS011;35602;44.534;18.696;2022-07-10T02:25:42;4.03;;;2.70;;
49710;SDS011;35602;44.534;18.696;2022-07-10T02:30:43;2.45;;;2.20;;
49710;SDS011;35602;44.534;18.696;2022-07-10T02:35:44;3.47;;;2.20;;
49710;SDS011;35602;44.534;18.696;2022-07-10T02:40:44;2.70;;;2.50;;
49710;SDS011;35602;44.534;18.696;2022-07-10T02:45:45;2.45;;;2.25;;
49710;SDS011;35602;44.534;18.696;2022-07-10T02:50:46;2.72;;;2.22;;
49710;SDS011;35602;44.534;18.696;2022-07-10T02:55:47;2.50;;;2.30;;
49710;SDS011;35602;44.534;18.696;2022-07-10T03:00:48;3.12;;;2.00;;
49710;SDS011;35602;44.534;18.696;2022-07-10T03:05:49;2.47;;;2.28;;
49710;SDS011;35602;44.534;18.696;2022-07-10T03:10:49;2.47;;;2.10;;
49710;SDS011;35602;44.534;18.696;2022-07-10T03:15:53;4.30;;;2.47;;
49710;SDS011;35602;44.534;18.696;2022-07-10T03:20:54;2.15;;;1.98;;
49710;SDS011;35602;44.534;18.696;2022-07-10T03:25:55;2.17;;;2.03;;
49710;SDS011;35602;44.534;18.696;2022-07-10T03:30:56;3.28;;;2.03;;
49710;SDS011;35602;44.534;18.696;2022-07-10T03:35:57;2.33;;;2.12;;
49710;SDS011;35602;44.534;18.696;2022-07-10T03:40:58;2.65;;;2.40;;
49710;SDS011;35602;44.534;18.696;2022-07-10T03:45:59;2.60;;;2.10;;
49710;SDS011;35602;44.534;18.696;2022-07-10T03:51:00;2.30;;;2.10;;
49710;SDS011;35602;44.534;18.696;2022-07-10T03:56:01;2.33;;;2.10;;
49710;SDS011;35602;44.534;18.696;2022-07-10T04:01:02;2.62;;;2.12;;
49710;SDS011;35602;44.534;18.696;2022-07-10T04:06:02;3.35;;;2.30;;
49710;SDS011;35602;44.534;18.696;2022-07-10T04:11:03;2.25;;;2.05;;
49710;SDS011;35602;44.534;18.696;2022-07-10T04:16:05;2.40;;;2.20;;
49710;SDS011;35602;44.534;18.696;2022-07-10T04:21:06;3.55;;;2.10;;
49710;SDS011;35602;44.534;18.696;2022-07-10T04:26:07;2.92;;;2.12;;
49710;SDS011;35602;44.534;18.696;2022-07-10T04:31:08;2.33;;;2.10;;
49710;SDS011;35602;44.534;18.696;2022-07-10T04:36:09;3.28;;;2.30;;
49710;SDS011;35602;44.534;18.696;2022-07-10T04:41:10;3.20;;;2.10;;
49710;SDS011;35602;44.534;18.696;2022-07-10T04:46:12;2.30;;;2.10;;
49710;SDS011;35602;44.534;18.696;2022-07-10T04:51:13;2.35;;;2.10;;
49710;SDS011;35602;44.534;18.696;2022-07-10T04:56:14;2.45;;;1.92;;
49710;SDS011;35602;44.534;18.696;2022-07-10T05:01:14;4.07;;;2.33;;
49710;SDS011;35602;44.534;18.696;2022-07-10T05:06:15;3.15;;;2.30;;
49710;SDS011;35602;44.534;18.696;2022-07-10T05:11:16;2.40;;;2.20;;
49710;SDS011;35602;44.534;18.696;2022-07-10T05:16:17;3.08;;;2.33;;
49710;SDS011;35602;44.534;18.696;2022-07-10T05:21:18;2.55;;;2.33;;
49710;SDS011;35602;44.534;18.696;2022-07-10T05:26:19;2.42;;;2.22;;
49710;SDS011;35602;44.534;18.696;2022-07-10T05:31:20;3.08;;;2.10;;
49710;SDS011;35602;44.534;18.696;2022-07-10T05:36:21;2.80;;;2.40;;
49710;SDS011;35602;44.534;18.696;2022-07-10T05:41:21;2.62;;;2.42;;
49710;SDS011;35602;44.534;18.696;2022-07-10T05:46:22;4.07;;;2.60;;
49710;SDS011;35602;44.534;18.696;2022-07-10T05:51:23;3.92;;;2.58;;
49710;SDS011;35602;44.534;18.696;2022-07-10T05:56:24;3.00;;;2.70;;
49710;SDS011;35602;44.534;18.696;2022-07-10T06:01:24;3.55;;;2.85;;
49710;SDS011;35602;44.534;18.696;2022-07-10T06:06:28;3.15;;;2.75;;
49710;SDS011;35602;44.534;18.696;2022-07-10T06:11:29;3.37;;;2.87;;
49710;SDS011;35602;44.534;18.696;2022-07-10T06:16:30;4.47;;;3.10;;
49710;SDS011;35602;44.534;18.696;2022-07-10T06:21:31;3.75;;;3.30;;
49710;SDS011;35602;44.534;18.696;2022-07-10T06:26:32;4.95;;;3.67;;
49710;SDS011;35602;44.534;18.696;2022-07-10T06:31:33;4.45;;;3.55;;
49710;SDS011;35602;44.534;18.696;2022-07-10T06:36:33;5.68;;;3.85;;
49710;SDS011;35602;44.534;18.696;2022-07-10T06:41:34;4.93;;;3.62;;
49710;SDS011;35602;44.534;18.696;2022-07-10T06:46:35;7.62;;;4.10;;
49710;SDS011;35602;44.534;18.696;2022-07-10T06:51:36;5.68;;;3.87;;
49710;SDS011;35602;44.534;18.696;2022-07-10T06:56:36;5.57;;;4.03;;
49710;SDS011;35602;44.534;18.696;2022-07-10T07:01:38;6.95;;;4.20;;
49710;SDS011;35602;44.534;18.696;2022-07-10T07:06:39;6.47;;;4.57;;
49710;SDS011;35602;44.534;18.696;2022-07-10T07:11:39;6.47;;;4.25;;
49710;SDS011;35602;44.534;18.696;2022-07-10T07:16:40;7.18;;;4.68;;
49710;SDS011;35602;44.534;18.696;2022-07-10T07:21:58;6.55;;;4.53;;
49710;SDS011;35602;44.534;18.696;2022-07-10T07:27:17;6.65;;;4.78;;
49710;SDS011;35602;44.534;18.696;2022-07-10T07:32:18;7.47;;;4.80;;
49710;SDS011;35602;44.534;18.696;2022-07-10T07:37:19;6.22;;;4.68;;
49710;SDS011;35602;44.534;18.696;2022-07-10T07:42:20;9.82;;;5.25;;
49710;SDS011;35602;44.534;18.696;2022-07-10T07:47:21;6.85;;;4.75;;
49710;SDS011;35602;44.534;18.696;2022-07-10T07:52:21;6.55;;;4.70;;
49710;SDS011;35602;44.534;18.696;2022-07-10T07:57:22;5.97;;;4.57;;
49710;SDS011;35602;44.534;18.696;2022-07-10T08:02:23;7.50;;;5.15;;
49710;SDS011;35602;44.534;18.696;2022-07-10T08:07:34;6.90;;;5.05;;
49710;SDS011;35602;44.534;18.696;2022-07-10T08:12:40;6.45;;;5.10;;
49710;SDS011;35602;44.534;18.696;2022-07-10T08:17:42;6.50;;;5.10;;
49710;SDS011;35602;44.534;18.696;2022-07-10T08:22:43;6.70;;;4.82;;
49710;SDS011;35602;44.534;18.696;2022-07-10T08:27:45;7.05;;;5.22;;
49710;SDS011;35602;44.534;18.696;2022-07-10T08:32:47;6.75;;;5.25;;
49710;SDS011;35602;44.534;18.696;2022-07-10T08:37:47;7.05;;;5.20;;
49710;SDS011;35602;44.534;18.696;2022-07-10T08:42:48;6.97;;;5.57;;
49710;SDS011;35602;44.534;18.696;2022-07-10T08:47:49;7.18;;;6.20;;
49710;SDS011;35602;44.534;18.696;2022-07-10T08:52:59;6.30;;;5.28;;
49710;SDS011;35602;44.534;18.696;2022-07-10T08:58:04;7.85;;;5.97;;
49710;SDS011;35602;44.534;18.696;2022-07-10T09:03:08;9.15;;;6.25;;
49710;SDS011;35602;44.534;18.696;2022-07-10T09:08:27;8.15;;;6.28;;
49710;SDS011;35602;44.534;18.696;2022-07-10T09:13:32;7.68;;;5.93;;
49710;SDS011;35602;44.534;18.696;2022-07-10T09:18:50;9.05;;;6.10;;
49710;SDS011;35602;44.534;18.696;2022-07-10T09:23:51;7.55;;;5.78;;
49710;SDS011;35602;44.534;18.696;2022-07-10T09:29:07;8.55;;;6.10;;
49710;SDS011;35602;44.534;18.696;2022-07-10T09:34:10;7.85;;;6.53;;
49710;SDS011;35602;44.534;18.696;2022-07-10T09:39:10;9.45;;;6.05;;
49710;SDS011;35602;44.534;18.696;2022-07-10T09:44:12;8.77;;;6.97;;
49710;SDS011;35602;44.534;18.696;2022-07-10T09:49:15;9.48;;;6.95;;
49710;SDS011;35602;44.534;18.696;2022-07-10T09:54:16;9.23;;;7.07;;
49710;SDS011;35602;44.534;18.696;2022-07-10T09:59:18;9.13;;;7.12;;
49710;SDS011;35602;44.534;18.696;2022-07-10T10:04:21;9.40;;;7.22;;
49710;SDS011;35602;44.534;18.696;2022-07-10T10:09:26;8.35;;;6.32;;
49710;SDS011;35602;44.534;18.696;2022-07-10T10:14:41;12.02;;;7.62;;
49710;SDS011;35602;44.534;18.696;2022-07-10T10:19:42;8.80;;;7.20;;
49710;SDS011;35602;44.534;18.696;2022-07-10T10:25:03;8.85;;;7.10;;
49710;SDS011;35602;44.534;18.696;2022-07-10T10:30:06;8.98;;;7.05;;
49710;SDS011;35602;44.534;18.696;2022-07-10T10:35:08;8.35;;;6.75;;
49710;SDS011;35602;44.534;18.696;2022-07-10T10:53:29;8.10;;;7.05;;
49710;SDS011;35602;44.534;18.696;2022-07-10T10:58:41;9.55;;;7.43;;
49710;SDS011;35602;44.534;18.696;2022-07-10T11:03:43;9.40;;;6.87;;
49710;SDS011;35602;44.534;18.696;2022-07-10T11:09:21;9.82;;;7.53;;
49710;SDS011;35602;44.534;18.696;2022-07-10T11:14:29;8.32;;;7.25;;
49710;SDS011;35602;44.534;18.696;2022-07-10T11:19:31;9.30;;;7.22;;
49710;SDS011;35602;44.534;18.696;2022-07-10T11:25:59;8.55;;;7.62;;
49710;SDS011;35602;44.534;18.696;2022-07-10T11:31:11;10.75;;;7.62;;
49710;SDS011;35602;44.534;18.696;2022-07-10T11:36:13;10.77;;;8.30;;
49710;SDS011;35602;44.534;18.696;2022-07-10T11:41:22;10.63;;;7.70;;
49710;SDS011;35602;44.534;18.696;2022-07-10T11:46:24;9.10;;;7.82;;
49710;SDS011;35602;44.534;18.696;2022-07-10T11:51:27;9.32;;;7.80;;
49710;SDS011;35602;44.534;18.696;2022-07-10T11:56:30;10.25;;;7.80;;
49710;SDS011;35602;44.534;18.696;2022-07-10T12:01:43;9.23;;;7.75;;
49710;SDS011;35602;44.534;18.696;2022-07-10T12:06:45;10.82;;;7.78;;
49710;SDS011;35602;44.534;18.696;2022-07-10T12:12:48;9.90;;;8.10;;
49710;SDS011;35602;44.534;18.696;2022-07-10T12:17:50;9.43;;;7.80;;
49710;SDS011;35602;44.534;18.696;2022-07-10T12:22:51;10.88;;;8.82;;
49710;SDS011;35602;44.534;18.696;2022-07-10T12:27:57;10.20;;;8.95;;
49710;SDS011;35602;44.534;18.696;2022-07-10T12:33:05;11.15;;;8.57;;
49710;SDS011;35602;44.534;18.696;2022-07-10T12:38:17;10.68;;;9.02;;
49710;SDS011;35602;44.534;18.696;2022-07-10T12:43:28;10.98;;;8.85;;
49710;SDS011;35602;44.534;18.696;2022-07-10T12:48:29;10.45;;;8.60;;
49710;SDS011;35602;44.534;18.696;2022-07-10T12:53:30;10.68;;;8.82;;
49710;SDS011;35602;44.534;18.696;2022-07-10T12:58:30;11.55;;;8.98;;
49710;SDS011;35602;44.534;18.696;2022-07-10T13:03:33;10.27;;;8.57;;
49710;SDS011;35602;44.534;18.696;2022-07-10T13:08:44;11.20;;;8.77;;
49710;SDS011;35602;44.534;18.696;2022-07-10T13:13:46;11.57;;;8.88;;
49710;SDS011;35602;44.534;18.696;2022-07-10T13:18:48;11.15;;;8.98;;
49710;SDS011;35602;44.534;18.696;2022-07-10T13:23:49;11.23;;;9.07;;
49710;SDS011;35602;44.534;18.696;2022-07-10T13:28:50;10.52;;;8.50;;
49710;SDS011;35602;44.534;18.696;2022-07-10T13:33:51;9.80;;;8.30;;
49710;SDS011;35602;44.534;18.696;2022-07-10T13:38:52;9.77;;;8.20;;
49710;SDS011;35602;44.534;18.696;2022-07-10T13:43:54;10.18;;;8.50;;
49710;SDS011;35602;44.534;18.696;2022-07-10T13:48:55;10.35;;;8.32;;
49710;SDS011;35602;44.534;18.696;2022-07-10T13:53:56;10.05;;;8.30;;
49710;SDS011;35602;44.534;18.696;2022-07-10T13:58:57;10.27;;;8.52;;
49710;SDS011;35602;44.534;18.696;2022-07-10T14:03:58;10.10;;;8.48;;
49710;SDS011;35602;44.534;18.696;2022-07-10T14:08:59;10.57;;;9.25;;
49710;SDS011;35602;44.534;18.696;2022-07-10T14:14:00;11.55;;;9.40;;
49710;SDS011;35602;44.534;18.696;2022-07-10T14:19:01;10.75;;;9.00;;
49710;SDS011;35602;44.534;18.696;2022-07-10T14:24:02;11.60;;;8.90;;
49710;SDS011;35602;44.534;18.696;2022-07-10T14:29:04;10.70;;;9.30;;
49710;SDS011;35602;44.534;18.696;2022-07-10T14:34:05;9.70;;;8.57;;
49710;SDS011;35602;44.534;18.696;2022-07-10T14:39:06;12.77;;;9.25;;
49710;SDS011;35602;44.534;18.696;2022-07-10T14:44:07;10.05;;;8.30;;
49710;SDS011;35602;44.534;18.696;2022-07-10T14:49:08;9.57;;;8.43;;
49710;SDS011;35602;44.534;18.696;2022-07-10T14:54:09;10.23;;;8.13;;
49710;SDS011;35602;44.534;18.696;2022-07-10T14:59:10;10.65;;;8.20;;
49710;SDS011;35602;44.534;18.696;2022-07-10T15:04:11;10.73;;;8.60;;
49710;SDS011;35602;44.534;18.696;2022-07-10T15:09:12;10.80;;;8.45;;
49710;SDS011;35602;44.534;18.696;2022-07-10T15:14:13;10.63;;;8.52;;
49710;SDS011;35602;44.534;18.696;2022-07-10T15:19:14;10.70;;;8.73;;
49710;SDS011;35602;44.534;18.696;2022-07-10T15:24:14;11.18;;;8.13;;
49710;SDS011;35602;44.534;18.696;2022-07-10T15:29:15;9.95;;;8.27;;
49710;SDS011;35602;44.534;18.696;2022-07-10T15:34:17;10.15;;;8.68;;
49710;SDS011;35602;44.534;18.696;2022-07-10T15:39:17;9.85;;;8.35;;
49710;SDS011;35602;44.534;18.696;2022-07-10T15:44:19;8.88;;;7.60;;
49710;SDS011;35602;44.534;18.696;2022-07-10T15:49:20;9.40;;;8.13;;
49710;SDS011;35602;44.534;18.696;2022-07-10T15:54:21;9.10;;;7.95;;
49710;SDS011;35602;44.534;18.696;2022-07-10T15:59:22;9.05;;;7.95;;
49710;SDS011;35602;44.534;18.696;2022-07-10T16:04:23;9.63;;;7.70;;
49710;SDS011;35602;44.534;18.696;2022-07-10T16:09:24;9.10;;;7.78;;
49710;SDS011;35602;44.534;18.696;2022-07-10T16:14:25;9.20;;;7.47;;
49710;SDS011;35602;44.534;18.696;2022-07-10T16:19:26;8.20;;;7.37;;
49710;SDS011;35602;44.534;18.696;2022-07-10T16:24:27;9.23;;;7.60;;
49710;SDS011;35602;44.534;18.696;2022-07-10T16:29:28;9.23;;;7.37;;
49710;SDS011;35602;44.534;18.696;2022-07-10T16:34:31;8.48;;;7.18;;
49710;SDS011;35602;44.534;18.696;2022-07-10T16:39:32;8.70;;;7.80;;
49710;SDS011;35602;44.534;18.696;2022-07-10T16:44:33;8.85;;;7.28;;
49710;SDS011;35602;44.534;18.696;2022-07-10T16:49:34;7.78;;;6.80;;
49710;SDS011;35602;44.534;18.696;2022-07-10T16:54:35;8.43;;;6.90;;
49710;SDS011;35602;44.534;18.696;2022-07-10T16:59:36;8.60;;;7.18;;
49710;SDS011;35602;44.534;18.696;2022-07-10T17:04:37;9.82;;;7.70;;
49710;SDS011;35602;44.534;18.696;2022-07-10T17:09:38;8.50;;;6.95;;
49710;SDS011;35602;44.534;18.696;2022-07-10T17:14:39;8.82;;;6.93;;
49710;SDS011;35602;44.534;18.696;2022-07-10T17:19:40;8.23;;;7.43;;
49710;SDS011;35602;44.534;18.696;2022-07-10T17:24:41;8.05;;;6.97;;
49710;SDS011;35602;44.534;18.696;2022-07-10T17:29:42;8.00;;;6.95;;
49710;SDS011;35602;44.534;18.696;2022-07-10T17:34:44;8.32;;;7.45;;
49710;SDS011;35602;44.534;18.696;2022-07-10T17:39:45;7.62;;;6.00;;
49710;SDS011;35602;44.534;18.696;2022-07-10T17:44:45;7.97;;;6.75;;
49710;SDS011;35602;44.534;18.696;2022-07-10T17:49:46;7.72;;;6.93;;
49710;SDS011;35602;44.534;18.696;2022-07-10T17:54:47;7.78;;;6.60;;
49710;SDS011;35602;44.534;18.696;2022-07-10T17:59:48;8.02;;;6.70;;
49710;SDS011;35602;44.534;18.696;2022-07-10T18:04:49;8.55;;;6.80;;
49710;SDS011;35602;44.534;18.696;2022-07-10T18:09:50;7.62;;;6.82;;
49710;SDS011;35602;44.534;18.696;2022-07-10T18:14:51;7.62;;;6.40;;
49710;SDS011;35602;44.534;18.696;2022-07-10T18:19:52;7.82;;;6.85;;
49710;SDS011;35602;44.534;18.696;2022-07-10T18:24:53;8.13;;;7.28;;
49710;SDS011;35602;44.534;18.696;2022-07-10T18:29:54;7.70;;;6.90;;
49710;SDS011;35602;44.534;18.696;2022-07-10T18:34:54;8.98;;;6.97;;
49710;SDS011;35602;44.534;18.696;2022-07-10T18:39:55;7.70;;;6.87;;
49710;SDS011;35602;44.534;18.696;2022-07-10T18:44:56;7.62;;;6.65;;
49710;SDS011;35602;44.534;18.696;2022-07-10T18:49:57;7.32;;;6.57;;
49710;SDS011;35602;44.534;18.696;2022-07-10T18:54:58;7.60;;;6.57;;
49710;SDS011;35602;44.534;18.696;2022-07-10T18:59:58;8.35;;;7.28;;
49710;SDS011;35602;44.534;18.696;2022-07-10T19:04:59;7.82;;;7.00;;
49710;SDS011;35602;44.534;18.696;2022-07-10T19:10:01;8.05;;;6.40;;
49710;SDS011;35602;44.534;18.696;2022-07-10T19:15:02;7.65;;;6.95;;
49710;SDS011;35602;44.534;18.696;2022-07-10T19:20:04;7.43;;;6.50;;
49710;SDS011;35602;44.534;18.696;2022-07-10T19:25:09;7.07;;;6.27;;
49710;SDS011;35602;44.534;18.696;2022-07-10T19:30:10;9.10;;;7.18;;
49710;SDS011;35602;44.534;18.696;2022-07-10T19:35:14;7.97;;;7.12;;
49710;SDS011;35602;44.534;18.696;2022-07-10T19:40:15;8.23;;;7.30;;
49710;SDS011;35602;44.534;18.696;2022-07-10T19:45:16;8.32;;;7.03;;
49710;SDS011;35602;44.534;18.696;2022-07-10T19:50:18;8.30;;;7.50;;
49710;SDS011;35602;44.534;18.696;2022-07-10T19:55:18;7.97;;;7.18;;
49710;SDS011;35602;44.534;18.696;2022-07-10T20:00:19;9.27;;;7.68;;
49710;SDS011;35602;44.534;18.696;2022-07-10T20:05:20;7.72;;;6.87;;
49710;SDS011;35602;44.534;18.696;2022-07-10T20:10:21;8.27;;;7.32;;
49710;SDS011;35602;44.534;18.696;2022-07-10T20:15:22;8.35;;;7.35;;
49710;SDS011;35602;44.534;18.696;2022-07-10T20:20:23;8.23;;;6.65;;
49710;SDS011;35602;44.534;18.696;2022-07-10T20:25:24;8.73;;;7.25;;
49710;SDS011;35602;44.534;18.696;2022-07-10T20:30:25;8.25;;;6.95;;
49710;SDS011;35602;44.534;18.696;2022-07-10T20:35:26;9.60;;;7.28;;
49710;SDS011;35602;44.534;18.696;2022-07-10T20:40:27;8.57;;;7.03;;
49710;SDS011;35602;44.534;18.696;2022-07-10T20:45:28;7.43;;;6.50;;
49710;SDS011;35602;44.534;18.696;2022-07-10T20:50:29;8.65;;;6.82;;
49710;SDS011;35602;44.534;18.696;2022-07-10T20:55:29;7.50;;;6.57;;
49710;SDS011;35602;44.534;18.696;2022-07-10T21:00:30;8.18;;;7.12;;
49710;SDS011;35602;44.534;18.696;2022-07-10T21:05:31;6.75;;;6.05;;
49710;SDS011;35602;44.534;18.696;2022-07-10T21:10:35;8.05;;;7.05;;
49710;SDS011;35602;44.534;18.696;2022-07-10T21:15:43;7.97;;;6.40;;
49710;SDS011;35602;44.534;18.696;2022-07-10T21:20:45;7.32;;;6.57;;
49710;SDS011;35602;44.534;18.696;2022-07-10T21:25:46;7.68;;;6.40;;
49710;SDS011;35602;44.534;18.696;2022-07-10T21:30:48;6.72;;;6.03;;
49710;SDS011;35602;44.534;18.696;2022-07-10T21:35:48;7.32;;;6.25;;
49710;SDS011;35602;44.534;18.696;2022-07-10T21:40:49;7.57;;;6.15;;
49710;SDS011;35602;44.534;18.696;2022-07-10T21:45:50;7.18;;;6.25;;
49710;SDS011;35602;44.534;18.696;2022-07-10T21:50:51;8.85;;;6.20;;
49710;SDS011;35602;44.534;18.696;2022-07-10T21:55:53;7.43;;;5.95;;
49710;SDS011;35602;44.534;18.696;2022-07-10T22:00:54;6.70;;;6.00;;
49710;SDS011;35602;44.534;18.696;2022-07-10T22:05:55;6.90;;;5.90;;
49710;SDS011;35602;44.534;18.696;2022-07-10T22:10:56;6.82;;;6.10;;
49710;SDS011;35602;44.534;18.696;2022-07-10T22:15:57;7.45;;;6.28;;
49710;SDS011;35602;44.534;18.696;2022-07-10T22:20:58;6.55;;;5.85;;
49710;SDS011;35602;44.534;18.696;2022-07-10T22:25:58;6.18;;;5.10;;
49710;SDS011;35602;44.534;18.696;2022-07-10T22:30:59;6.62;;;5.60;;
49710;SDS011;35602;44.534;18.696;2022-07-10T22:36:18;5.85;;;5.22;;
49710;SDS011;35602;44.534;18.696;2022-07-10T22:41:19;6.93;;;5.95;;
49710;SDS011;35602;44.534;18.696;2022-07-10T22:46:21;6.47;;;5.53;;
49710;SDS011;35602;44.534;18.696;2022-07-10T22:51:24;5.62;;;5.05;;
49710;SDS011;35602;44.534;18.696;2022-07-10T22:56:25;6.62;;;5.50;;
49710;SDS011;35602;44.534;18.696;2022-07-10T23:01:26;6.12;;;5.53;;
49710;SDS011;35602;44.534;18.696;2022-07-10T23:06:27;6.62;;;5.53;;
49710;SDS011;35602;44.534;18.696;2022-07-10T23:11:27;5.87;;;4.97;;
49710;SDS011;35602;44.534;18.696;2022-07-10T23:16:28;5.68;;;5.10;;
49710;SDS011;35602;44.534;18.696;2022-07-10T23:21:29;5.47;;;4.80;;
49710;SDS011;35602;44.534;18.696;2022-07-10T23:26:30;5.82;;;5.25;;
49710;SDS011;35602;44.534;18.696;2022-07-10T23:31:31;5.82;;;5.10;;
49710;SDS011;35602;44.534;18.696;2022-07-10T23:36:32;5.32;;;4.75;;
49710;SDS011;35602;44.534;18.696;2022-07-10T23:41:32;5.65;;;5.05;;
49710;SDS011;35602;44.534;18.696;2022-07-10T23:46:33;5.35;;;4.85;;
49710;SDS011;35602;44.534;18.696;2022-07-10T23:51:34;5.87;;;4.75;;
49710;SDS011;35602;44.534;18.696;2022-07-10T23:56:35;7.43;;;4.80;;
